Time;durP1;ratioP1;P1;durP2;ratioP2;P2;SDS_P1;SDS_P2;PMS_P1;PMS_P2;Temp;Humidity;BMP_temperature;BMP_pressure;BME280_temperature;BME280_humidity;BME280_pressure;Samples;Min_cycle;Max_cycle;Signal;HPM_P1;HPM_P2
2023/03/17 00:00:14;;;;;;;;;;;;;;;;;;4913860;29;19923;-78
2023/03/17 00:02:44;;;;;;;;;;;;;;;;;;4929316;29;19929;-78
2023/03/17 00:05:19;;;;;;;;;;;;;;;;;;4928356;29;19934;-78
2023/03/17 00:07:46;;;;;;;;;;;;;;;;;;4915036;29;19923;-78
2023/03/17 00:10:17;;;;;;;;;;;;;;;;;;4913685;29;19934;-79
2023/03/17 00:12:44;;;;;;;;;;;;;;;;;;4917725;29;19923;-78
2023/03/17 00:15:12;;;;;;;;;;;;;;;;;;4912912;29;19945;-78
2023/03/17 00:17:39;;;;;;;;;;;;;;;;;;4901703;29;19934;-78
2023/03/17 00:20:16;;;;;;;;;;;;;;;;;;4927971;29;20010;-78
2023/03/17 00:22:43;;;;;;;;;;;;;;;;;;4918433;29;19934;-78
2023/03/17 00:25:13;;;;;;;;;;;;;;;;;;4914297;29;19923;-77
2023/03/17 00:27:42;;;;;;;;;;;;;;;;;;4925132;29;19930;-77
2023/03/17 00:30:37;;;;;;;;;;;;;;;;;;4915741;29;19938;-78
2023/03/17 00:33:05;;;;;;;;;;;;;;;;;;4919173;29;20289;-78
2023/03/17 00:35:33;;;;;;;;;;;;;;;;;;4912057;29;19923;-78
2023/03/17 00:38:02;;;;;;;;;;;;;;;;;;4915401;29;19930;-78
2023/03/17 00:40:31;;;;;;;;;;;;;;;;;;4913166;29;20297;-78
2023/03/17 00:42:58;;;;;;;;;;;;;;;;;;4913842;29;20305;-78
2023/03/17 00:45:25;;;;;;;;;;;;;;;;;;4895572;29;20297;-78
2023/03/17 00:47:57;;;;;;;;;;;;;;;;;;4897082;29;19930;-78
2023/03/17 00:50:26;;;;;;;;;;;;;;;;;;4929121;29;20416;-78
2023/03/17 00:52:55;;;;;;;;;;;;;;;;;;4930033;29;20301;-78
2023/03/17 00:55:22;;;;;;;;;;;;;;;;;;4907386;29;20299;-78
2023/03/17 00:57:49;;;;;;;;;;;;;;;;;;4909559;29;19930;-78
2023/03/17 01:00:21;;;;;;;;;;;;;;;;;;4928223;29;20301;-78
2023/03/17 01:02:53;;;;;;;;;;;;;;;;;;4916946;29;19923;-78
2023/03/17 01:05:20;;;;;;;;;;;;;;;;;;4911882;29;20382;-78
2023/03/17 01:07:51;;;;;;;;;;;;;;;;;;4929811;29;19923;-78
2023/03/17 01:10:25;;;;;;;;;;;;;;;;;;4922513;29;19942;-78
2023/03/17 01:12:56;;;;;;;;;;;;;;;;;;4913794;29;19923;-78
2023/03/17 01:15:30;;;;;;;;;;;;;;;;;;4928012;29;19945;-78
2023/03/17 01:18:00;;;;;;;;;;;;;;;;;;4914939;29;19923;-78
2023/03/17 01:20:28;;;;;;;;;;;;;;;;;;4927882;29;19930;-78
2023/03/17 01:22:55;;;;;;;;;;;;;;;;;;4911041;29;20301;-78
2023/03/17 01:25:26;;;;;;;;;;;;;;;;;;4914309;29;19959;-78
2023/03/17 01:28:02;;;;;;;;;;;;;;;;;;4911679;29;19933;-78
2023/03/17 01:30:33;;;;;;;;;;;;;;;;;;4912514;29;19930;-79
2023/03/17 01:33:05;;;;;;;;;;;;;;;;;;4911554;29;20390;-78
2023/03/17 01:35:32;;;;;;;;;;;;;;;;;;4916048;29;19931;-78
2023/03/17 01:37:59;;;;;;;;;;;;;;;;;;4912677;29;19942;-78
2023/03/17 01:40:29;;;;;;;;;;;;;;;;;;4914308;29;19931;-78
2023/03/17 01:43:00;;;;;;;;;;;;;;;;;;4911668;29;19934;-79
2023/03/17 01:45:47;;;;;;;;;;;;;;;;;;4913817;29;20186;-78
2023/03/17 01:48:16;;;;;;;;;;;;;;;;;;4912073;29;19927;-78
2023/03/17 01:50:47;;;;;;;;;;;;;;;;;;4913101;29;20400;-78
2023/03/17 01:53:14;;;;;;;;;;;;;;;;;;4909899;29;20296;-78
2023/03/17 01:55:43;;;;;;;;;;;;;;;;;;4912246;29;19931;-78
2023/03/17 01:58:11;;;;;;;;;;;;;;;;;;4910921;29;19931;-78
2023/03/17 02:00:37;;;;;;;;;;;;;;;;;;4929005;29;20380;-78
2023/03/17 02:03:07;;;;;;;;;;;;;;;;;;4900248;29;19938;-78
2023/03/17 02:05:34;;;;;;;;;;;;;;;;;;4912175;29;19934;-78
2023/03/17 02:08:00;;;;;;;;;;;;;;;;;;4915797;29;19926;-78
2023/03/17 02:10:36;;;;;;;;;;;;;;;;;;4904007;29;20384;-78
2023/03/17 02:13:07;;;;;;;;;;;;;;;;;;4903960;29;19938;-78
2023/03/17 02:15:41;;;;;;;;;;;;;;;;;;4921954;29;19923;-78
2023/03/17 02:18:08;;;;;;;;;;;;;;;;;;4910449;29;19931;-78
2023/03/17 02:20:57;;;;;;;;;;;;;;;;;;4902847;29;20400;-78
2023/03/17 02:23:31;;;;;;;;;;;;;;;;;;4894911;29;19930;-78
2023/03/17 02:26:07;;;;;;;;;;;;;;;;;;4913927;29;19923;-78
2023/03/17 02:28:38;;;;;;;;;;;;;;;;;;4911351;29;19934;-78
2023/03/17 02:31:08;;;;;;;;;;;;;;;;;;4896576;29;19931;-78
2023/03/17 02:33:37;;;;;;;;;;;;;;;;;;4911193;29;19946;-78
2023/03/17 02:36:04;;;;;;;;;;;;;;;;;;4930505;29;20232;-78
2023/03/17 02:38:35;;;;;;;;;;;;;;;;;;4929626;29;20544;-78
2023/03/17 02:41:06;;;;;;;;;;;;;;;;;;4911385;29;19938;-78
2023/03/17 02:43:33;;;;;;;;;;;;;;;;;;4909397;29;19933;-78
2023/03/17 02:46:01;;;;;;;;;;;;;;;;;;4913305;29;20318;-78
2023/03/17 02:48:28;;;;;;;;;;;;;;;;;;4909343;29;19927;-78
2023/03/17 02:50:55;;;;;;;;;;;;;;;;;;4912742;29;19923;-79
2023/03/17 02:53:22;;;;;;;;;;;;;;;;;;4914682;29;20379;-78
2023/03/17 02:55:50;;;;;;;;;;;;;;;;;;4916386;29;19930;-78
2023/03/17 02:58:19;;;;;;;;;;;;;;;;;;4918705;29;19922;-78
2023/03/17 03:00:47;;;;;;;;;;;;;;;;;;4935863;28;19946;-78
2023/03/17 03:03:16;;;;;;;;;;;;;;;;;;4912808;29;19934;-78
2023/03/17 03:05:43;;;;;;;;;;;;;;;;;;4921317;29;19927;-78
2023/03/17 03:08:11;;;;;;;;;;;;;;;;;;4934801;29;19926;-78
2023/03/17 03:10:38;;;;;;;;;;;;;;;;;;4928798;29;20013;-78
2023/03/17 03:13:06;;;;;;;;;;;;;;;;;;4928134;29;19934;-79
2023/03/17 03:15:34;;;;;;;;;;;;;;;;;;4913209;29;19923;-78
2023/03/17 03:18:01;;;;;;;;;;;;;;;;;;4905087;29;19930;-78
2023/03/17 03:20:28;;;;;;;;;;;;;;;;;;4927419;29;19934;-78
2023/03/17 03:22:57;;;;;;;;;;;;;;;;;;4912918;29;19927;-79
2023/03/17 03:25:24;;;;;;;;;;;;;;;;;;4913676;29;19927;-78
2023/03/17 03:27:53;;;;;;;;;;;;;;;;;;4929893;29;19930;-78
2023/03/17 03:30:25;;;;;;;;;;;;;;;;;;4919232;29;20305;-81
2023/03/17 03:32:52;;;;;;;;;;;;;;;;;;4972022;23;19929;-78
2023/03/17 03:35:29;;;;;;;;;;;;;;;;;;;;;
2023/03/17 03:37:59;;;;;;;;;;;;;;;;;;4960196;28;19922;-79
2023/03/17 03:40:36;;;;;;;;;;;;;;;;;;4958577;28;19929;-78
2023/03/17 03:43:05;;;;;;;;;;;;;;;;;;4947047;29;19967;-79
2023/03/17 03:45:35;;;;;;;;;;;;;;;;;;4929843;29;19926;-79
2023/03/17 03:48:02;;;;;;;;;;;;;;;;;;4938761;29;19946;-79
2023/03/17 03:50:29;;;;;;;;;;;;;;;;;;4936062;29;19929;-79
2023/03/17 03:52:57;;;;;;;;;;;;;;;;;;4939543;29;19931;-79
2023/03/17 03:55:24;;;;;;;;;;;;;;;;;;4934358;29;19922;-79
2023/03/17 03:57:51;;;;;;;;;;;;;;;;;;4941266;29;19938;-79
2023/03/17 04:00:18;;;;;;;;;;;;;;;;;;4934466;29;19931;-79
2023/03/17 04:02:49;;;;;;;;;;;;;;;;;;4942383;29;20308;-79
2023/03/17 04:05:17;;;;;;;;;;;;;;;;;;4943272;29;19923;-78
2023/03/17 04:07:44;;;;;;;;;;;;;;;;;;4932438;29;19923;-79
2023/03/17 04:10:14;;;;;;;;;;;;;;;;;;4935094;29;19930;-79
2023/03/17 04:12:44;;;;;;;;;;;;;;;;;;4945517;29;19922;-79
2023/03/17 04:15:14;;;;;;;;;;;;;;;;;;4934958;29;19931;-79
2023/03/17 04:17:45;;;;;;;;;;;;;;;;;;4934176;29;19934;-79
2023/03/17 04:20:14;;;;;;;;;;;;;;;;;;4931534;29;20329;-79
2023/03/17 04:22:42;;;;;;;;;;;;;;;;;;4934902;29;19929;-78
2023/03/17 04:25:13;;;;;;;;;;;;;;;;;;4931855;29;20243;-79
2023/03/17 04:27:40;;;;;;;;;;;;;;;;;;4934266;29;19923;-79
2023/03/17 04:30:12;;;;;;;;;;;;;;;;;;4931561;29;19930;-78
2023/03/17 04:32:39;;;;;;;;;;;;;;;;;;4932448;29;19945;-78
2023/03/17 04:35:07;;;;;;;;;;;;;;;;;;4932586;29;19931;-78
2023/03/17 04:37:38;;;;;;;;;;;;;;;;;;4937096;29;20388;-78
2023/03/17 04:40:07;;;;;;;;;;;;;;;;;;4928535;29;20831;-77
2023/03/17 04:42:36;;;;;;;;;;;;;;;;;;4948909;29;21107;-78
2023/03/17 04:45:06;;;;;;;;;;;;;;;;;;4930817;29;19923;-78
2023/03/17 04:47:35;;;;;;;;;;;;;;;;;;4923418;29;20388;-78
2023/03/17 04:50:06;;;;;;;;;;;;;;;;;;4931999;29;20333;-78
2023/03/17 04:52:34;;;;;;;;;;;;;;;;;;4934839;29;20209;-78
2023/03/17 04:55:03;;;;;;;;;;;;;;;;;;4933904;29;19930;-78
2023/03/17 04:57:30;;;;;;;;;;;;;;;;;;4933469;29;20451;-78
2023/03/17 05:00:01;;;;;;;;;;;;;;;;;;4933407;29;19937;-78
2023/03/17 05:02:28;;;;;;;;;;;;;;;;;;4932515;29;19923;-78
2023/03/17 05:04:56;;;;;;;;;;;;;;;;;;4928612;29;19946;-78
2023/03/17 05:07:25;;;;;;;;;;;;;;;;;;4928339;29;20409;-78
2023/03/17 05:09:54;;;;;;;;;;;;;;;;;;4949679;28;20310;-78
2023/03/17 05:12:22;;;;;;;;;;;;;;;;;;4939339;29;20309;-78
2023/03/17 05:14:51;;;;;;;;;;;;;;;;;;4933893;29;19946;-78
2023/03/17 05:17:18;;;;;;;;;;;;;;;;;;4915804;29;19930;-79
2023/03/17 05:19:45;;;;;;;;;;;;;;;;;;4931759;29;20408;-78
2023/03/17 05:22:14;;;;;;;;;;;;;;;;;;4937040;29;19923;-78
2023/03/17 05:24:43;;;;;;;;;;;;;;;;;;4933520;29;19929;-78
2023/03/17 05:27:12;;;;;;;;;;;;;;;;;;4937114;29;19930;-78
2023/03/17 05:29:41;;;;;;;;;;;;;;;;;;4930856;29;19931;-78
2023/03/17 05:32:08;;;;;;;;;;;;;;;;;;4910548;29;19930;-78
2023/03/17 05:34:35;;;;;;;;;;;;;;;;;;4930587;29;19923;-78
2023/03/17 05:37:04;;;;;;;;;;;;;;;;;;4932766;29;19930;-78
2023/03/17 05:39:34;;;;;;;;;;;;;;;;;;4931452;29;19942;-78
2023/03/17 05:42:01;;;;;;;;;;;;;;;;;;4928873;29;20293;-78
2023/03/17 05:44:28;;;;;;;;;;;;;;;;;;4922828;29;19926;-79
2023/03/17 05:46:58;;;;;;;;;;;;;;;;;;4935150;29;19929;-78
2023/03/17 05:49:25;;;;;;;;;;;;;;;;;;4924247;29;19929;-79
2023/03/17 05:51:57;;;;;;;;;;;;;;;;;;4932718;29;19931;-79
2023/03/17 05:54:29;;;;;;;;;;;;;;;;;;4922872;29;19942;-79
2023/03/17 05:56:58;;;;;;;;;;;;;;;;;;4923318;29;19922;-79
2023/03/17 05:59:33;;;;;;;;;;;;;;;;;;4923620;29;19927;-79
2023/03/17 06:02:02;;;;;;;;;;;;;;;;;;4921433;29;19931;-78
2023/03/17 06:04:29;;;;;;;;;;;;;;;;;;4922688;29;19930;-79
2023/03/17 06:07:01;;;;;;;;;;;;;;;;;;4922534;29;20407;-78
2023/03/17 06:09:31;;;;;;;;;;;;;;;;;;4923221;29;19923;-78
2023/03/17 06:12:00;;;;;;;;;;;;;;;;;;4936216;28;19929;-79
2023/03/17 06:14:27;;;;;;;;;;;;;;;;;;4937567;28;20381;-78
2023/03/17 06:16:54;;;;;;;;;;;;;;;;;;4922780;29;20159;-79
2023/03/17 06:19:22;;;;;;;;;;;;;;;;;;4901534;29;19930;-79
2023/03/17 06:21:49;;;;;;;;;;;;;;;;;;4923167;29;19931;-79
2023/03/17 06:24:16;;;;;;;;;;;;;;;;;;4920499;29;19953;-79
2023/03/17 06:26:45;;;;;;;;;;;;;;;;;;4904926;29;19929;-79
2023/03/17 06:29:12;;;;;;;;;;;;;;;;;;4923143;29;19926;-78
2023/03/17 06:31:41;;;;;;;;;;;;;;;;;;4919660;29;19927;-79
2023/03/17 06:34:08;;;;;;;;;;;;;;;;;;4921157;29;19930;-79
2023/03/17 06:36:37;;;;;;;;;;;;;;;;;;4919559;29;20530;-80
2023/03/17 06:39:08;;;;;;;;;;;;;;;;;;4910585;29;20313;-79
2023/03/17 06:41:35;;;;;;;;;;;;;;;;;;4924680;29;20304;-79
2023/03/17 06:44:04;;;;;;;;;;;;;;;;;;4933032;29;19927;-79
2023/03/17 06:46:33;;;;;;;;;;;;;;;;;;4944738;28;19929;-80
2023/03/17 06:49:00;;;;;;;;;;;;;;;;;;4927769;29;19923;-80
2023/03/17 06:51:27;;;;;;;;;;;;;;;;;;4915656;29;19923;-80
2023/03/17 06:53:57;;;;;;;;;;;;;;;;;;4936827;29;20063;-80
2023/03/17 06:56:25;;;;;;;;;;;;;;;;;;4930244;29;19922;-80
2023/03/17 06:58:52;;;;;;;;;;;;;;;;;;4934353;29;19930;-80
2023/03/17 07:01:22;;;;;;;;;;;;;;;;;;4938483;28;20412;-80
2023/03/17 07:03:51;;;;;;;;;;;;;;;;;;4936806;29;19922;-80
2023/03/17 07:06:18;;;;;;;;;;;;;;;;;;4918232;29;20308;-80
2023/03/17 07:08:47;;;;;;;;;;;;;;;;;;4938432;29;19923;-80
2023/03/17 07:11:18;;;;;;;;;;;;;;;;;;4936255;29;19930;-80
2023/03/17 07:13:45;;;;;;;;;;;;;;;;;;4941825;29;19930;-79
2023/03/17 07:16:13;;;;;;;;;;;;;;;;;;4933081;29;19923;-80
2023/03/17 07:18:40;;;;;;;;;;;;;;;;;;4921873;29;19923;-79
2023/03/17 07:21:10;;;;;;;;;;;;;;;;;;4932821;29;19929;-79
2023/03/17 07:23:37;;;;;;;;;;;;;;;;;;4940600;29;19922;-79
2023/03/17 07:26:05;;;;;;;;;;;;;;;;;;4934329;29;19923;-80
2023/03/17 07:28:33;;;;;;;;;;;;;;;;;;4931707;29;19937;-80
2023/03/17 07:31:01;;;;;;;;;;;;;;;;;;4941994;29;19930;-80
2023/03/17 07:33:29;;;;;;;;;;;;;;;;;;4945626;29;19922;-80
2023/03/17 07:35:56;;;;;;;;;;;;;;;;;;4939495;29;19931;-80
2023/03/17 07:38:23;;;;;;;;;;;;;;;;;;4936425;29;19927;-80
2023/03/17 07:40:52;;;;;;;;;;;;;;;;;;4933797;29;19942;-80
2023/03/17 07:43:19;;;;;;;;;;;;;;;;;;4944752;29;19933;-80
2023/03/17 07:45:50;;;;;;;;;;;;;;;;;;4930492;29;19923;-80
2023/03/17 07:48:20;;;;;;;;;;;;;;;;;;4937836;29;19926;-80
2023/03/17 07:50:47;;;;;;;;;;;;;;;;;;4934641;29;19922;-80
2023/03/17 07:53:14;;;;;;;;;;;;;;;;;;4926049;29;19938;-80
2023/03/17 07:55:41;;;;;;;;;;;;;;;;;;4934863;29;20388;-80
2023/03/17 07:58:09;;;;;;;;;;;;;;;;;;4932682;29;20682;-80
2023/03/17 08:00:38;;;;;;;;;;;;;;;;;;4933153;29;19931;-80
2023/03/17 08:03:07;;;;;;;;;;;;;;;;;;4946357;29;19926;-80
2023/03/17 08:05:36;;;;;;;;;;;;;;;;;;4936588;29;21433;-80
2023/03/17 08:08:04;;;;;;;;;;;;;;;;;;4908691;29;19949;-80
2023/03/17 08:10:31;;;;;;;;;;;;;;;;;;4935554;29;20427;-80
2023/03/17 08:12:57;;;;;;;;;;;;;;;;;;4946029;29;19929;-80
2023/03/17 08:15:24;;;;;;;;;;;;;;;;;;4933297;29;19926;-80
2023/03/17 08:17:52;;;;;;;;;;;;;;;;;;4917646;29;19923;-79
2023/03/17 08:20:20;;;;;;;;;;;;;;;;;;4923798;29;20321;-79
2023/03/17 08:22:47;;;;;;;;;;;;;;;;;;4946158;29;19934;-79
2023/03/17 08:25:14;;;;;;;;;;;;;;;;;;4918620;29;19923;-78
2023/03/17 08:27:47;;;;;;;;;;;;;;;;;;4939103;29;19937;-79
2023/03/17 08:30:17;;;;;;;;;;;;;;;;;;4932701;29;19926;-79
2023/03/17 08:32:47;;;;;;;;;;;;;;;;;;4933635;29;19923;-79
2023/03/17 08:35:17;;;;;;;;;;;;;;;;;;4936553;29;19930;-79
2023/03/17 08:37:46;;;;;;;;;;;;;;;;;;4931059;29;20305;-79
2023/03/17 08:40:16;;;;;;;;;;;;;;;;;;4935241;29;19946;-79
2023/03/17 08:42:44;;;;;;;;;;;;;;;;;;4932263;29;19923;-79
2023/03/17 08:45:14;;;;;;;;;;;;;;;;;;4948913;29;20293;-79
2023/03/17 08:47:41;;;;;;;;;;;;;;;;;;4933936;29;19937;-79
2023/03/17 08:50:12;;;;;;;;;;;;;;;;;;4921828;29;19931;-79
2023/03/17 08:52:41;;;;;;;;;;;;;;;;;;4929793;29;19947;-79
2023/03/17 08:55:11;;;;;;;;;;;;;;;;;;4935665;29;20301;-79
2023/03/17 08:57:38;;;;;;;;;;;;;;;;;;4938896;29;19923;-81
2023/03/17 09:00:09;;;;;;;;;;;;;;;;;;4933176;29;20419;-81
2023/03/17 09:02:36;;;;;;;;;;;;;;;;;;4940562;29;20300;-79
2023/03/17 09:05:04;;;;;;;;;;;;;;;;;;4933771;29;20420;-79
2023/03/17 09:07:33;;;;;;;;;;;;;;;;;;4938807;29;19922;-82
2023/03/17 09:10:00;;;;;;;;;;;;;;;;;;4920368;29;19930;-79
2023/03/17 09:12:29;;;;;;;;;;;;;;;;;;4943078;29;19930;-79
2023/03/17 09:14:58;;;;;;;;;;;;;;;;;;4938957;29;19931;-80
2023/03/17 09:17:26;;;;;;;;;;;;;;;;;;4931330;29;19929;-79
2023/03/17 09:19:52;;;;;;;;;;;;;;;;;;4928123;29;19922;-80
2023/03/17 09:22:22;;;;;;;;;;;;;;;;;;4929716;29;19942;-80
2023/03/17 09:24:49;;;;;;;;;;;;;;;;;;4935203;29;19938;-79
2023/03/17 09:27:18;;;;;;;;;;;;;;;;;;4935045;29;19933;-80
2023/03/17 09:29:46;;;;;;;;;;;;;;;;;;4940348;29;19922;-80
2023/03/17 09:32:21;;;;;;;;;;;;;;;;;;4950660;23;19923;-78
2023/03/17 09:34:48;;;;;;;;;;;;;;;;;;4933610;29;20312;-78
2023/03/17 09:37:17;;;;;;;;;;;;;;;;;;4936176;29;19950;-79
2023/03/17 09:39:45;;;;;;;;;;;;;;;;;;4949219;28;19926;-79
2023/03/17 09:42:20;;;;;;;;;;;;;;;;;;4948536;28;20494;-78
2023/03/17 09:45:01;;;;;;;;;;;;;;;;;;4936554;29;19930;-79
2023/03/17 09:47:49;;;;;;;;;;;;;;;;;;4934062;29;19923;-79
2023/03/17 09:50:17;;;;;;;;;;;;;;;;;;4941133;29;20286;-79
2023/03/17 09:52:44;;;;;;;;;;;;;;;;;;4944787;29;19930;-79
2023/03/17 09:55:12;;;;;;;;;;;;;;;;;;4931650;29;19923;-79
2023/03/17 09:57:40;;;;;;;;;;;;;;;;;;4929753;29;19930;-79
2023/03/17 10:00:14;;;;;;;;;;;;;;;;;;4930603;29;20270;-79
2023/03/17 10:02:44;;;;;;;;;;;;;;;;;;4929973;29;19933;-79
2023/03/17 10:05:18;;;;;;;;;;;;;;;;;;4935916;29;20388;-79
2023/03/17 10:07:49;;;;;;;;;;;;;;;;;;4940054;29;19923;-79
2023/03/17 10:10:16;;;;;;;;;;;;;;;;;;4933741;29;19922;-79
2023/03/17 10:12:45;;;;;;;;;;;;;;;;;;4940408;29;19926;-80
2023/03/17 10:15:18;;;;;;;;;;;;;;;;;;4940693;28;20297;-79
2023/03/17 10:17:50;;;;;;;;;;;;;;;;;;4924574;29;19930;-79
2023/03/17 10:20:18;;;;;;;;;;;;;;;;;;4933415;29;19929;-79
2023/03/17 10:22:46;;;;;;;;;;;;;;;;;;4939005;29;19923;-79
2023/03/17 10:25:14;;;;;;;;;;;;;;;;;;4936643;29;19930;-80
2023/03/17 10:27:45;;;;;;;;;;;;;;;;;;4934755;29;19930;-80
2023/03/17 10:30:16;;;;;;;;;;;;;;;;;;4947285;28;19922;-80
2023/03/17 10:32:44;;;;;;;;;;;;;;;;;;4937069;29;19934;-80
2023/03/17 10:35:11;;;;;;;;;;;;;;;;;;4932029;29;19949;-80
2023/03/17 10:37:38;;;;;;;;;;;;;;;;;;4937000;29;19923;-80
2023/03/17 10:40:19;;;;;;;;;;;;;;;;;;4939512;29;20400;-79
2023/03/17 10:42:47;;;;;;;;;;;;;;;;;;4935036;29;19930;-80
2023/03/17 10:45:23;;;;;;;;;;;;;;;;;;4935377;29;20381;-79
2023/03/17 10:47:52;;;;;;;;;;;;;;;;;;4934322;29;19930;-80
2023/03/17 10:50:21;;;;;;;;;;;;;;;;;;4937558;29;19937;-79
2023/03/17 10:52:52;;;;;;;;;;;;;;;;;;4955388;28;19945;-80
2023/03/17 10:55:22;;;;;;;;;;;;;;;;;;4933370;29;19934;-80
2023/03/17 10:58:01;;;;;;;;;;;;;;;;;;4932914;29;20377;-80
2023/03/17 11:00:34;;;;;;;;;;;;;;;;;;4936504;29;19923;-80
2023/03/17 11:03:11;;;;;;;;;;;;;;;;;;4933462;29;19954;-80
2023/03/17 11:05:38;;;;;;;;;;;;;;;;;;4954342;28;19923;-80
2023/03/17 11:08:10;;;;;;;;;;;;;;;;;;4940003;29;19923;-80
2023/03/17 11:10:44;;;;;;;;;;;;;;;;;;4945469;29;19930;-80
2023/03/17 11:13:15;;;;;;;;;;;;;;;;;;4940728;29;20225;-80
2023/03/17 11:15:45;;;;;;;;;;;;;;;;;;4933033;29;19922;-79
2023/03/17 11:18:14;;;;;;;;;;;;;;;;;;4923831;29;20296;-79
2023/03/17 11:20:48;;;;;;;;;;;;;;;;;;4916345;29;19941;-80
2023/03/17 11:23:23;;;;;;;;;;;;;;;;;;4922937;29;20285;-79
2023/03/17 11:25:55;;;;;;;;;;;;;;;;;;4917819;29;19922;-79
2023/03/17 11:28:26;;;;;;;;;;;;;;;;;;4915122;29;19938;-79
2023/03/17 11:30:58;;;;;;;;;;;;;;;;;;4925343;29;19937;-79
2023/03/17 11:33:34;;;;;;;;;;;;;;;;;;4915245;29;19926;-79
2023/03/17 11:36:09;;;;;;;;;;;;;;;;;;4922061;29;19949;-79
2023/03/17 11:38:37;;;;;;;;;;;;;;;;;;4938114;28;19931;-79
2023/03/17 11:41:25;;;;;;;;;;;;;;;;;;4925726;29;19926;-79
2023/03/17 11:44:13;;;;;;;;;;;;;;;;;;4927485;29;19930;-79
2023/03/17 11:46:41;;;;;;;;;;;;;;;;;;4917347;29;19927;-79
2023/03/17 11:49:14;;;;;;;;;;;;;;;;;;4938028;28;19946;-79
2023/03/17 11:51:47;;;;;;;;;;;;;;;;;;4935328;29;20479;-79
2023/03/17 11:54:15;;;;;;;;;;;;;;;;;;4939496;29;19934;-79
2023/03/17 11:56:45;;;;;;;;;;;;;;;;;;4934586;29;19926;-79
2023/03/17 11:59:19;;;;;;;;;;;;;;;;;;4917971;29;19934;-79
2023/03/17 12:01:48;;;;;;;;;;;;;;;;;;4944111;29;20392;-79
2023/03/17 12:04:18;;;;;;;;;;;;;;;;;;4956136;28;19922;-79
2023/03/17 12:06:49;;;;;;;;;;;;;;;;;;4935306;29;19945;-79
2023/03/17 12:09:22;;;;;;;;;;;;;;;;;;4928317;29;19923;-78
2023/03/17 12:11:51;;;;;;;;;;;;;;;;;;4963056;28;19929;-78
2023/03/17 12:14:25;;;;;;;;;;;;;;;;;;4951096;29;19927;-79
2023/03/17 12:16:58;;;;;;;;;;;;;;;;;;4941236;29;20289;-79
2023/03/17 12:19:27;;;;;;;;;;;;;;;;;;4945744;29;19965;-78
2023/03/17 12:22:02;;;;;;;;;;;;;;;;;;4935730;29;19931;-79
2023/03/17 12:24:33;;;;;;;;;;;;;;;;;;4939345;29;20373;-79
2023/03/17 12:27:03;;;;;;;;;;;;;;;;;;4935146;29;20424;-79
2023/03/17 12:29:41;;;;;;;;;;;;;;;;;;4935443;29;19923;-79
2023/03/17 12:32:16;;;;;;;;;;;;;;;;;;4938519;29;19930;-79
2023/03/17 12:35:19;;;;;;;;;;;;;;;;;;4935324;29;19942;-78
2023/03/17 12:37:48;;;;;;;;;;;;;;;;;;4937366;29;19931;-79
2023/03/17 12:40:19;;;;;;;;;;;;;;;;;;4933268;29;19926;-79
2023/03/17 12:42:46;;;;;;;;;;;;;;;;;;4941834;29;19946;-79
2023/03/17 12:45:21;;;;;;;;;;;;;;;;;;4934723;29;19933;-79
2023/03/17 12:47:58;;;;;;;;;;;;;;;;;;4920544;29;19929;-79
2023/03/17 12:50:40;;;;;;;;;;;;;;;;;;4933964;29;19933;-79
2023/03/17 12:53:16;;;;;;;;;;;;;;;;;;4929629;29;19926;-79
2023/03/17 12:55:46;;;;;;;;;;;;;;;;;;4930087;29;20314;-79
2023/03/17 12:58:21;;;;;;;;;;;;;;;;;;4939422;29;19922;-79
2023/03/17 13:00:55;;;;;;;;;;;;;;;;;;4931856;29;19922;-79
2023/03/17 13:03:23;;;;;;;;;;;;;;;;;;4939468;29;19922;-79
2023/03/17 13:05:54;;;;;;;;;;;;;;;;;;4933813;29;19923;-79
2023/03/17 13:08:23;;;;;;;;;;;;;;;;;;4934043;29;19938;-79
2023/03/17 13:10:59;;;;;;;;;;;;;;;;;;4937735;29;19930;-79
2023/03/17 13:13:41;;;;;;;;;;;;;;;;;;4922184;29;19929;-79
2023/03/17 13:16:23;;;;;;;;;;;;;;;;;;4934731;29;19922;-79
2023/03/17 13:19:06;;;;;;;;;;;;;;;;;;4958573;28;20392;-79
2023/03/17 13:21:34;;;;;;;;;;;;;;;;;;4939533;29;20380;-79
2023/03/17 13:24:19;;;;;;;;;;;;;;;;;;4935614;29;20297;-79
2023/03/17 13:26:53;;;;;;;;;;;;;;;;;;4919456;29;19942;-79
2023/03/17 13:29:23;;;;;;;;;;;;;;;;;;4953241;28;19930;-79
2023/03/17 13:31:50;;;;;;;;;;;;;;;;;;4933914;29;19926;-79
2023/03/17 13:34:20;;;;;;;;;;;;;;;;;;4947300;28;19923;-79
2023/03/17 13:36:57;;;;;;;;;;;;;;;;;;4944467;29;19931;-79
2023/03/17 13:39:35;;;;;;;;;;;;;;;;;;4938530;29;19923;-79
2023/03/17 13:42:22;;;;;;;;;;;;;;;;;;4931850;29;19930;-79
2023/03/17 13:45:04;;;;;;;;;;;;;;;;;;4927548;29;20302;-79
2023/03/17 13:47:37;;;;;;;;;;;;;;;;;;4922648;29;19938;-79
2023/03/17 13:50:07;;;;;;;;;;;;;;;;;;4930588;29;19930;-79
2023/03/17 13:52:38;;;;;;;;;;;;;;;;;;4936186;29;19929;-79
2023/03/17 13:55:22;;;;;;;;;;;;;;;;;;4931148;29;19927;-79
2023/03/17 13:57:55;;;;;;;;;;;;;;;;;;4935422;29;19938;-79
2023/03/17 14:00:24;;;;;;;;;;;;;;;;;;4943261;29;20297;-79
2023/03/17 14:03:00;;;;;;;;;;;;;;;;;;4952914;28;19922;-79
2023/03/17 14:05:28;;;;;;;;;;;;;;;;;;4931517;29;19922;-79
2023/03/17 14:07:59;;;;;;;;;;;;;;;;;;4934866;29;20056;-79
2023/03/17 14:10:27;;;;;;;;;;;;;;;;;;4935747;29;19938;-79
2023/03/17 14:12:56;;;;;;;;;;;;;;;;;;4941568;29;19950;-79
2023/03/17 14:15:24;;;;;;;;;;;;;;;;;;4928737;29;20321;-80
2023/03/17 14:17:52;;;;;;;;;;;;;;;;;;4941770;29;20295;-79
2023/03/17 14:20:20;;;;;;;;;;;;;;;;;;4918937;29;19931;-79
2023/03/17 14:22:53;;;;;;;;;;;;;;;;;;4943100;29;19934;-79
2023/03/17 14:25:22;;;;;;;;;;;;;;;;;;4936890;29;19934;-79
2023/03/17 14:27:50;;;;;;;;;;;;;;;;;;4940464;28;19923;-80
2023/03/17 14:30:18;;;;;;;;;;;;;;;;;;4939471;29;19926;-79
2023/03/17 14:32:46;;;;;;;;;;;;;;;;;;4948905;28;19926;-79
2023/03/17 14:35:20;;;;;;;;;;;;;;;;;;4937627;29;19930;-80
2023/03/17 14:37:47;;;;;;;;;;;;;;;;;;4947048;29;19929;-80
2023/03/17 14:40:24;;;;;;;;;;;;;;;;;;4933940;29;19929;-80
2023/03/17 14:42:51;;;;;;;;;;;;;;;;;;4943198;29;19923;-80
2023/03/17 14:45:29;;;;;;;;;;;;;;;;;;4932916;29;19934;-80
2023/03/17 14:47:56;;;;;;;;;;;;;;;;;;4939088;29;19922;-79
2023/03/17 14:50:33;;;;;;;;;;;;;;;;;;4937206;29;19929;-79
2023/03/17 14:53:00;;;;;;;;;;;;;;;;;;4948231;29;19929;-79
2023/03/17 14:55:35;;;;;;;;;;;;;;;;;;4935242;29;19936;-79
2023/03/17 14:58:08;;;;;;;;;;;;;;;;;;4941308;29;19927;-79
2023/03/17 15:00:43;;;;;;;;;;;;;;;;;;4938305;28;20300;-79
2023/03/17 15:03:17;;;;;;;;;;;;;;;;;;4941979;28;19922;-79
2023/03/17 15:05:50;;;;;;;;;;;;;;;;;;4928771;29;20304;-79
2023/03/17 15:08:30;;;;;;;;;;;;;;;;;;4937873;29;19922;-79
2023/03/17 15:10:59;;;;;;;;;;;;;;;;;;4933388;29;19927;-79
2023/03/17 15:13:26;;;;;;;;;;;;;;;;;;4935346;29;19926;-79
2023/03/17 15:15:57;;;;;;;;;;;;;;;;;;4940546;29;19926;-79
2023/03/17 15:18:29;;;;;;;;;;;;;;;;;;4954053;28;20218;-79
2023/03/17 15:20:57;;;;;;;;;;;;;;;;;;4933603;29;19930;-79
2023/03/17 15:23:25;;;;;;;;;;;;;;;;;;4931213;28;19922;-79
2023/03/17 15:25:54;;;;;;;;;;;;;;;;;;4941281;29;19923;-79
2023/03/17 15:28:23;;;;;;;;;;;;;;;;;;4937730;29;19922;-79
2023/03/17 15:30:50;;;;;;;;;;;;;;;;;;4931338;29;19923;-79
2023/03/17 15:33:20;;;;;;;;;;;;;;;;;;4959306;23;19923;-79
2023/03/17 15:35:47;;;;;;;;;;;;;;;;;;4962394;28;20389;-79
2023/03/17 15:38:17;;;;;;;;;;;;;;;;;;4943243;29;20427;-79
2023/03/17 15:40:44;;;;;;;;;;;;;;;;;;4946084;29;19923;-79
2023/03/17 15:43:13;;;;;;;;;;;;;;;;;;4951781;28;19926;-79
2023/03/17 15:45:42;;;;;;;;;;;;;;;;;;4946478;29;19922;-79
2023/03/17 15:48:13;;;;;;;;;;;;;;;;;;4950408;29;19934;-79
2023/03/17 15:50:40;;;;;;;;;;;;;;;;;;4952768;29;20395;-79
2023/03/17 15:53:09;;;;;;;;;;;;;;;;;;4950132;29;19945;-79
2023/03/17 15:55:36;;;;;;;;;;;;;;;;;;4950122;29;19929;-79
2023/03/17 15:58:03;;;;;;;;;;;;;;;;;;4947730;29;19923;-79
2023/03/17 16:00:30;;;;;;;;;;;;;;;;;;4951981;29;19929;-79
2023/03/17 16:03:00;;;;;;;;;;;;;;;;;;4948800;29;20633;-79
2023/03/17 16:05:28;;;;;;;;;;;;;;;;;;4948967;29;20309;-79
2023/03/17 16:07:55;;;;;;;;;;;;;;;;;;4949748;29;19930;-79
2023/03/17 16:10:23;;;;;;;;;;;;;;;;;;4945894;29;20305;-79
2023/03/17 16:12:50;;;;;;;;;;;;;;;;;;4948869;29;19923;-79
2023/03/17 16:15:17;;;;;;;;;;;;;;;;;;4937513;29;19992;-79
2023/03/17 16:17:44;;;;;;;;;;;;;;;;;;4953989;29;19922;-79
2023/03/17 16:20:22;;;;;;;;;;;;;;;;;;4947290;29;19929;-79
2023/03/17 16:22:49;;;;;;;;;;;;;;;;;;4939390;28;19923;-79
2023/03/17 16:25:17;;;;;;;;;;;;;;;;;;4948995;29;19938;-79
2023/03/17 16:27:44;;;;;;;;;;;;;;;;;;4946983;29;20435;-79
2023/03/17 16:30:15;;;;;;;;;;;;;;;;;;4948642;29;19958;-79
2023/03/17 16:32:44;;;;;;;;;;;;;;;;;;4944846;29;20324;-79
2023/03/17 16:35:14;;;;;;;;;;;;;;;;;;4953411;28;20032;-79
2023/03/17 16:37:44;;;;;;;;;;;;;;;;;;4947684;29;19937;-80
2023/03/17 16:40:18;;;;;;;;;;;;;;;;;;4937384;29;19930;-80
2023/03/17 16:42:48;;;;;;;;;;;;;;;;;;4950997;28;20411;-80
2023/03/17 16:45:15;;;;;;;;;;;;;;;;;;4938615;29;20392;-80
2023/03/17 16:47:42;;;;;;;;;;;;;;;;;;4948011;29;19923;-80
2023/03/17 16:50:15;;;;;;;;;;;;;;;;;;4944012;29;19929;-80
2023/03/17 16:52:42;;;;;;;;;;;;;;;;;;4951662;29;19926;-80
2023/03/17 16:55:10;;;;;;;;;;;;;;;;;;4954453;29;19949;-80
2023/03/17 16:57:39;;;;;;;;;;;;;;;;;;4948514;29;19931;-80
2023/03/17 17:00:07;;;;;;;;;;;;;;;;;;4948435;29;20309;-80
2023/03/17 17:02:36;;;;;;;;;;;;;;;;;;4935793;29;19938;-80
2023/03/17 17:05:06;;;;;;;;;;;;;;;;;;4936445;29;19961;-80